Time;durP1;ratioP1;P1;durP2;ratioP2;P2;SDS_P1;SDS_P2;PMS_P1;PMS_P2;Temp;Humidity;BMP_temperature;BMP_pressure;BME280_temperature;BME280_humidity;BME280_pressure;Samples;Min_cycle;Max_cycle;Signal;HPM_P1;HPM_P2
2023/06/19 00:01:06;;;;;;;9.27;6.32;;;;;;;22.69;55.07;100715.50;5053818;28;20045;-64
2023/06/19 00:03:31;;;;;;;8.10;6.40;;;;;;;22.61;55.89;100723.06;5053935;28;20085;-61
2023/06/19 00:05:57;;;;;;;8.77;6.28;;;;;;;22.57;55.90;100725.91;5053867;28;20040;-62
2023/06/19 00:08:22;;;;;;;8.20;6.50;;;;;;;22.52;55.93;100733.31;5053918;28;20033;-64
2023/06/19 00:10:48;;;;;;;9.15;6.20;;;;;;;22.51;56.24;100732.44;5053840;28;20112;-63
2023/06/19 00:13:14;;;;;;;10.68;6.18;;;;;;;22.48;56.32;100732.56;5053851;28;20539;-62
2023/06/19 00:15:40;;;;;;;9.20;6.90;;;;;;;22.41;57.14;100748.09;5053823;28;20571;-64
2023/06/19 00:18:06;;;;;;;10.25;6.47;;;;;;;22.42;56.56;100738.19;5053618;28;20105;-64
2023/06/19 00:20:32;;;;;;;7.35;6.18;;;;;;;22.39;57.21;100741.00;5053668;28;20025;-63
2023/06/19 00:22:57;;;;;;;8.25;6.32;;;;;;;22.35;56.97;100748.31;5053457;28;20386;-64
2023/06/19 00:25:23;;;;;;;10.48;6.32;;;;;;;22.32;57.07;100750.28;5053397;28;20432;-64
2023/06/19 00:27:48;;;;;;;11.43;6.70;;;;;;;22.32;56.76;100761.94;5053640;28;20093;-63
2023/06/19 00:30:15;;;;;;;7.43;6.18;;;;;;;22.28;56.57;100759.41;5053782;28;20615;-62
2023/06/19 00:32:46;;;;;;;7.80;6.38;;;;;;;22.24;57.31;100766.72;5053322;28;20025;-63
2023/06/19 00:35:16;;;;;;;9.63;6.80;;;;;;;22.18;57.38;100766.94;5053293;28;20467;-64
2023/06/19 00:37:45;;;;;;;13.40;6.63;;;;;;;22.05;58.77;100779.09;5053556;28;20024;-63
2023/06/19 00:40:34;;;;;;;8.70;6.82;;;;;;;22.02;58.47;100773.84;5053038;28;20025;-64
2023/06/19 00:42:59;;;;;;;11.10;7.15;;;;;;;21.92;59.03;100775.97;5040311;28;20060;-64
2023/06/19 00:45:26;;;;;;;10.52;7.38;;;;;;;21.83;59.56;100779.03;5053121;28;20490;-64
2023/06/19 00:47:53;;;;;;;10.90;6.95;;;;;;;21.73;60.03;100783.88;5053160;28;20505;-64
2023/06/19 00:50:19;;;;;;;10.07;7.15;;;;;;;21.63;60.47;100785.16;5052749;28;20087;-64
2023/06/19 00:52:44;;;;;;;12.95;7.10;;;;;;;21.60;60.52;100787.94;5052974;28;20055;-64
2023/06/19 00:55:11;;;;;;;13.07;6.93;;;;;;;21.50;61.11;100782.88;5052367;28;20029;-62
2023/06/19 00:57:36;;;;;;;10.23;7.00;;;;;;;21.44;61.31;100784.91;5053181;28;20036;-64
2023/06/19 01:00:07;;;;;;;10.25;7.32;;;;;;;21.42;61.07;100786.78;5053002;28;20028;-62
2023/06/19 01:02:33;;;;;;;9.70;7.03;;;;;;;21.36;61.41;100789.66;5053190;28;20417;-61
2023/06/19 01:04:59;;;;;;;11.07;6.72;;;;;;;21.36;61.67;100800.41;5034926;28;20032;-62
2023/06/19 01:07:50;;;;;;;9.15;6.65;;;;;;;21.34;61.35;100795.09;5052899;28;20033;-61
2023/06/19 01:10:21;;;;;;;9.48;6.55;;;;;;;21.29;61.71;100801.53;5052760;28;20029;-61
2023/06/19 01:13:06;;;;;;;9.55;6.72;;;;;;;21.24;61.70;100805.25;5053173;28;20082;-64
2023/06/19 01:15:32;;;;;;;8.38;6.65;;;;;;;21.21;62.06;100794.63;5052989;28;20367;-62
2023/06/19 01:17:58;;;;;;;8.88;6.40;;;;;;;21.19;62.32;100799.16;5052733;28;20036;-62
2023/06/19 01:20:24;;;;;;;12.35;6.45;;;;;;;21.15;62.70;100805.56;5052637;28;20164;-64
2023/06/19 01:22:49;;;;;;;8.45;5.90;;;;;;;21.10;62.61;100807.53;5052879;28;20467;-64
2023/06/19 01:25:15;;;;;;;8.30;5.80;;;;;;;21.10;63.27;100812.03;5052481;28;20542;-62
2023/06/19 01:27:44;;;;;;;9.60;5.57;;;;;;;21.05;62.95;100804.13;5052605;28;20021;-62
2023/06/19 01:30:12;;;;;;;11.00;5.55;;;;;;;21.01;63.66;100811.38;5052652;28;20112;-62
2023/06/19 01:32:41;;;;;;;6.68;5.13;;;;;;;21.02;63.42;100801.53;5052765;28;20056;-62
2023/06/19 01:35:11;;;;;;;8.77;5.38;;;;;;;21.00;63.39;100809.63;5052450;28;20502;-62
2023/06/19 01:37:38;;;;;;;9.57;5.20;;;;;;;20.97;64.46;100823.16;5052671;28;20025;-62
2023/06/19 01:40:06;;;;;;;9.50;5.82;;;;;;;20.85;65.03;100822.69;5052412;28;20477;-62
2023/06/19 01:42:32;;;;;;;6.55;4.82;;;;;;;20.85;65.02;100814.63;5052299;28;20452;-62
2023/06/19 01:44:58;;;;;;;7.88;4.95;;;;;;;20.80;65.31;100827.31;5052475;28;20029;-62
2023/06/19 01:47:23;;;;;;;7.63;4.80;;;;;;;20.78;65.71;100829.19;5034765;28;20083;-62
2023/06/19 01:49:49;;;;;;;6.90;4.93;;;;;;;20.66;66.81;100827.78;5052639;28;20124;-62
2023/06/19 01:52:15;;;;;;;11.50;5.07;;;;;;;20.60;67.00;100834.22;5052533;28;20060;-62
2023/06/19 01:54:40;;;;;;;7.13;5.07;;;;;;;20.62;66.79;100836.84;5052460;28;20391;-62
2023/06/19 01:57:06;;;;;;;6.97;5.20;;;;;;;20.53;67.66;100832.63;5052257;28;20025;-62
2023/06/19 01:59:32;;;;;;;8.07;4.80;;;;;;;20.49;67.71;100833.66;5052373;28;20053;-62
2023/06/19 02:01:57;;;;;;;8.57;4.65;;;;;;;20.48;67.88;100838.16;5034489;28;20084;-62
2023/06/19 02:04:22;;;;;;;6.80;4.60;;;;;;;20.44;67.86;100839.13;5052333;28;20220;-62
2023/06/19 02:06:48;;;;;;;6.32;4.90;;;;;;;20.42;68.73;100838.28;5053761;28;20561;-62
2023/06/19 02:09:14;;;;;;;6.50;4.40;;;;;;;20.35;69.25;100852.84;5056158;28;20029;-62
2023/06/19 02:11:39;;;;;;;5.78;4.13;;;;;;;20.32;69.58;100843.97;5056004;28;20025;-62
2023/06/19 02:14:05;;;;;;;8.93;4.40;;;;;;;20.33;69.14;100849.28;5055988;28;20075;-63
2023/06/19 02:16:30;;;;;;;6.85;4.13;;;;;;;20.33;69.82;100854.66;5056045;28;20078;-63
2023/06/19 02:18:56;;;;;;;7.90;4.18;;;;;;;20.32;70.17;100862.78;5056239;28;20036;-62
2023/06/19 02:21:22;;;;;;;5.50;3.97;;;;;;;20.31;70.26;100864.56;5055641;28;20363;-62
2023/06/19 02:23:47;;;;;;;7.65;4.20;;;;;;;20.26;71.01;100861.16;5055785;28;20078;-62
2023/06/19 02:26:13;;;;;;;6.82;3.92;;;;;;;20.22;71.04;100855.00;5055866;28;20490;-62
2023/06/19 02:28:38;;;;;;;5.90;3.63;;;;;;;20.16;71.85;100862.31;5055673;28;20025;-62
2023/06/19 02:31:04;;;;;;;8.27;3.30;;;;;;;20.13;72.30;100855.25;5055717;28;20153;-63
2023/06/19 02:33:29;;;;;;;7.05;4.00;;;;;;;20.07;72.66;100857.22;5055673;28;20386;-63
2023/06/19 02:35:58;;;;;;;6.97;3.60;;;;;;;19.98;73.18;100851.19;5055518;28;20059;-63
2023/06/19 02:38:25;;;;;;;7.43;3.75;;;;;;;19.94;73.32;100857.56;5055553;28;20025;-63
2023/06/19 02:40:50;;;;;;;5.80;4.07;;;;;;;19.94;73.24;100857.56;5055287;28;20592;-63
2023/06/19 02:43:15;;;;;;;8.30;3.75;;;;;;;19.89;73.72;100856.81;5055478;28;20025;-63
2023/06/19 02:45:41;;;;;;;5.80;3.80;;;;;;;19.85;74.32;100862.31;5055425;28;20039;-63
2023/06/19 02:48:06;;;;;;;8.68;3.83;;;;;;;19.86;74.13;100854.22;5055607;28;20037;-63
2023/06/19 02:50:32;;;;;;;4.97;3.90;;;;;;;19.79;75.14;100843.72;5055234;28;20040;-62
2023/06/19 02:52:57;;;;;;;8.32;4.03;;;;;;;19.79;74.89;100857.13;5055503;28;20033;-63
2023/06/19 02:55:23;;;;;;;6.43;3.85;;;;;;;19.72;75.59;100854.59;5037247;28;20033;-63
2023/06/19 02:57:48;;;;;;;4.45;3.42;;;;;;;19.73;75.19;100859.03;5055209;28;20033;-63
2023/06/19 03:00:14;;;;;;;5.90;3.65;;;;;;;19.75;75.60;100859.88;5037074;28;20079;-64
2023/06/19 03:02:43;;;;;;;4.85;3.60;;;;;;;19.69;76.44;100867.19;5055136;28;20037;-63
2023/06/19 03:05:09;;;;;;;4.78;3.10;;;;;;;19.64;76.13;100869.13;5055004;28;20039;-64
2023/06/19 03:07:34;;;;;;;8.98;3.47;;;;;;;19.56;77.54;100866.59;5054919;28;20021;-65
2023/06/19 03:09:59;;;;;;;5.65;3.53;;;;;;;19.55;77.76;100870.22;5055010;28;20078;-65
2023/06/19 03:12:25;;;;;;;7.05;3.60;;;;;;;19.56;77.54;100876.44;5054926;28;20477;-63
2023/06/19 03:14:50;;;;;;;6.75;3.45;;;;;;;19.57;77.34;100884.47;5055155;28;20087;-64
2023/06/19 03:17:15;;;;;;;5.82;3.40;;;;;;;19.57;77.53;100883.56;5054531;28;20060;-63
2023/06/19 03:19:41;;;;;;;7.88;3.45;;;;;;;19.51;78.19;100887.28;5054796;28;20025;-64
2023/06/19 03:22:06;;;;;;;6.97;3.55;;;;;;;19.47;78.48;100885.59;5054506;28;20056;-63
2023/06/19 03:24:31;;;;;;;5.90;3.60;;;;;;;19.41;78.99;100892.00;5054681;28;20083;-63
2023/06/19 03:26:57;;;;;;;5.05;3.40;;;;;;;19.44;78.58;100897.31;5036400;28;20028;-64
2023/06/19 03:29:22;;;;;;;4.70;3.63;;;;;;;19.43;78.63;100902.69;5054275;28;20731;-63
2023/06/19 03:31:47;;;;;;;7.28;3.80;;;;;;;19.39;79.41;100890.28;5054119;28;20112;-64
2023/06/19 03:34:13;;;;;;;6.97;4.20;;;;;;;19.29;79.70;100894.97;5053999;28;20021;-63
2023/06/19 03:36:38;;;;;;;5.32;3.72;;;;;;;19.24;80.37;100883.50;5054051;28;20025;-64
2023/06/19 03:39:04;;;;;;;6.95;4.30;;;;;;;19.19;81.02;100888.97;5054129;28;20489;-64
2023/06/19 03:41:29;;;;;;;7.35;4.15;;;;;;;19.18;81.54;100891.69;5053880;28;20565;-61
2023/06/19 03:43:55;;;;;;;7.50;4.28;;;;;;;19.15;81.77;100897.13;5053655;28;20482;-63
2023/06/19 03:46:20;;;;;;;6.60;4.07;;;;;;;19.16;82.20;100905.13;5054072;28;20029;-63
2023/06/19 03:48:45;;;;;;;7.03;4.50;;;;;;;19.12;82.90;100911.47;5053663;28;20438;-64
2023/06/19 03:51:11;;;;;;;7.85;4.50;;;;;;;19.11;83.34;100908.81;5053537;28;20026;-63
2023/06/19 03:53:36;;;;;;;6.43;4.20;;;;;;;19.12;83.38;100911.47;5053951;28;20025;-64
2023/06/19 03:56:02;;;;;;;5.60;4.60;;;;;;;19.18;82.59;100926.50;5053785;28;20033;-63
2023/06/19 03:58:27;;;;;;;6.80;4.13;;;;;;;19.29;82.68;100926.25;5053527;28;20478;-63
2023/06/19 04:00:53;;;;;;;9.23;4.78;;;;;;;19.33;82.80;100926.16;5053389;28;20065;-64
2023/06/19 04:03:18;;;;;;;10.75;4.20;;;;;;;19.39;82.48;100923.31;5052823;28;20045;-63
2023/06/19 04:05:43;;;;;;;6.53;4.28;;;;;;;19.37;83.09;100926.97;5053318;28;20029;-63
2023/06/19 04:08:09;;;;;;;7.47;4.20;;;;;;;19.41;81.79;100936.69;5053397;28;20036;-64
2023/06/19 04:10:34;;;;;;;5.88;4.00;;;;;;;19.41;83.12;100934.00;5053060;28;20032;-63
2023/06/19 04:12:59;;;;;;;6.35;4.38;;;;;;;19.46;83.22;100937.44;5053484;28;20029;-63
2023/06/19 04:15:26;;;;;;;6.43;4.70;;;;;;;19.45;83.79;100938.38;5053421;28;20440;-63
2023/06/19 04:17:51;;;;;;;5.78;4.30;;;;;;;19.45;83.15;100933.91;5053194;28;20409;-63
2023/06/19 04:20:17;;;;;;;9.63;4.60;;;;;;;19.50;83.31;100948.06;5035200;28;20025;-64
2023/06/19 04:22:42;;;;;;;9.35;4.18;;;;;;;19.54;82.42;100956.91;5053344;28;20111;-63
2023/06/19 04:25:09;;;;;;;7.50;4.40;;;;;;;19.53;83.53;100960.50;5052882;28;20459;-64
2023/06/19 04:27:35;;;;;;;6.70;4.18;;;;;;;19.53;83.81;100955.16;5053072;28;20033;-63
2023/06/19 04:30:03;;;;;;;8.63;4.55;;;;;;;19.55;83.48;100953.31;5052376;28;20025;-63
2023/06/19 04:32:29;;;;;;;7.38;4.63;;;;;;;19.58;83.26;100961.28;5052995;28;20021;-64
2023/06/19 04:34:54;;;;;;;7.05;4.60;;;;;;;19.54;84.32;100972.13;5052963;28;20450;-63
2023/06/19 04:37:20;;;;;;;9.98;4.60;;;;;;;19.55;84.29;100964.03;5052603;28;20060;-63
2023/06/19 04:39:46;;;;;;;8.98;5.10;;;;;;;19.55;84.34;100973.88;5052761;28;20109;-63
2023/06/19 04:42:19;;;;;;;7.97;4.82;;;;;;;19.52;85.11;100970.31;5052529;28;20028;-61
2023/06/19 04:44:45;;;;;;;7.47;4.80;;;;;;;19.56;85.34;100972.94;5052748;28;20124;-63
2023/06/19 04:47:11;;;;;;;7.05;5.10;;;;;;;19.62;83.62;100972.84;5052960;28;20070;-63
2023/06/19 04:49:36;;;;;;;10.23;5.38;;;;;;;19.60;85.15;100975.50;5052859;28;20029;-64
2023/06/19 04:52:03;;;;;;;7.75;5.10;;;;;;;19.64;84.35;100987.06;5034617;28;20518;-64
2023/06/19 04:54:28;;;;;;;8.07;5.15;;;;;;;19.61;84.75;100987.16;5052772;28;20029;-63
2023/06/19 04:56:54;;;;;;;6.93;5.03;;;;;;;19.62;84.81;100992.50;5052470;28;20036;-63
2023/06/19 04:59:20;;;;;;;7.78;4.90;;;;;;;19.69;83.88;100980.69;5034605;28;20135;-63
2023/06/19 05:01:45;;;;;;;7.05;5.35;;;;;;;19.74;84.22;100977.88;5052343;28;20136;-63
2023/06/19 05:04:11;;;;;;;9.93;5.47;;;;;;;19.73;85.06;100971.63;5052439;28;20079;-64
2023/06/19 05:06:37;;;;;;;11.30;5.78;;;;;;;19.75;84.69;100993.06;5052414;28;20086;-63
2023/06/19 05:09:02;;;;;;;12.25;5.20;;;;;;;19.77;84.81;100984.06;5052448;28;20530;-63
2023/06/19 05:11:28;;;;;;;9.85;4.97;;;;;;;19.79;84.73;100986.72;5052522;28;20427;-63
2023/06/19 05:13:53;;;;;;;8.05;5.20;;;;;;;19.81;84.54;100990.22;5052457;28;20035;-64
2023/06/19 05:16:19;;;;;;;10.82;5.60;;;;;;;19.80;84.87;100984.91;5052442;28;20064;-63
2023/06/19 05:18:45;;;;;;;10.60;5.25;;;;;;;19.80;84.33;100990.28;5052590;28;20048;-63
2023/06/19 05:21:11;;;;;;;6.78;5.18;;;;;;;19.82;84.62;100997.34;5052304;28;20029;-64
2023/06/19 05:23:38;;;;;;;7.97;5.57;;;;;;;19.80;85.20;100991.16;5052598;28;20163;-63
2023/06/19 05:26:03;;;;;;;9.50;5.32;;;;;;;19.86;84.47;100999.03;5052239;28;20029;-63
2023/06/19 05:28:29;;;;;;;6.22;4.95;;;;;;;19.90;84.13;101000.72;5052254;28;20029;-63
2023/06/19 05:30:54;;;;;;;8.35;5.40;;;;;;;19.92;84.10;101006.06;5034391;28;20088;-64
2023/06/19 05:33:20;;;;;;;8.02;5.47;;;;;;;19.98;83.02;101005.88;5052153;28;20124;-63
2023/06/19 05:35:51;;;;;;;7.47;5.10;;;;;;;20.05;82.94;101009.31;5052248;28;20025;-64
2023/06/19 05:38:16;;;;;;;8.75;5.18;;;;;;;20.08;83.17;100999.34;5052421;28;20037;-64
2023/06/19 05:40:42;;;;;;;9.63;5.85;;;;;;;20.13;82.77;101008.19;5035929;28;20055;-64
2023/06/19 05:43:07;;;;;;;7.95;5.78;;;;;;;20.13;nan;101013.56;5056353;28;20102;-64
2023/06/19 05:45:33;;;;;;;8.30;5.78;;;;;;;20.09;82.69;101003.81;5056357;28;20035;-64
2023/06/19 05:47:58;;;;;;;10.25;5.90;;;;;;;20.16;82.83;101013.44;5056304;28;20029;-64
2023/06/19 05:50:23;;;;;;;7.85;5.43;;;;;;;20.22;82.04;101012.44;5055873;28;20100;-64
2023/06/19 05:52:49;;;;;;;10.52;6.25;;;;;;;20.26;81.94;101017.69;5055960;28;20021;-64
2023/06/19 05:55:14;;;;;;;8.73;5.70;;;;;;;20.30;81.70;101022.94;5055793;28;20037;-64
2023/06/19 05:57:40;;;;;;;9.00;5.90;;;;;;;20.38;80.43;101015.56;5055860;28;20025;-64
2023/06/19 06:00:06;;;;;;;12.75;5.80;;;;;;;20.45;80.88;101017.16;5056165;28;20033;-63
2023/06/19 06:02:32;;;;;;;8.60;5.78;;;;;;;20.50;80.81;101021.50;5055488;28;20502;-64
2023/06/19 06:04:57;;;;;;;8.82;6.35;;;;;;;20.60;80.72;101021.25;5055723;28;20029;-63
2023/06/19 06:07:23;;;;;;;7.82;6.47;;;;;;;20.72;79.13;101024.47;5056034;28;20078;-63
2023/06/19 06:09:48;;;;;;;9.18;6.30;;;;;;;20.86;78.79;101021.41;5055965;28;20117;-63
2023/06/19 06:12:14;;;;;;;8.00;6.47;;;;;;;21.00;77.99;101029.94;5055622;28;20417;-64
2023/06/19 06:14:41;;;;;;;9.75;6.25;;;;;;;21.09;76.97;101031.47;5055953;28;20036;-63
2023/06/19 06:17:07;;;;;;;8.93;5.93;;;;;;;21.19;76.01;101040.13;5055904;28;20025;-63
2023/06/19 06:19:32;;;;;;;9.57;6.50;;;;;;;21.17;74.83;101045.56;5055461;28;20021;-63
2023/06/19 06:21:57;;;;;;;8.88;5.75;;;;;;;21.19;74.47;101050.88;5055419;28;20051;-63
2023/06/19 06:24:23;;;;;;;9.57;6.40;;;;;;;21.24;73.83;101054.31;5055629;28;20122;-63
2023/06/19 06:26:49;;;;;;;9.05;6.25;;;;;;;21.36;73.47;101055.78;5055245;28;20492;-63
2023/06/19 06:29:14;;;;;;;9.20;6.85;;;;;;;21.56;71.77;101071.31;5055325;28;20116;-64
2023/06/19 06:31:41;;;;;;;10.73;7.07;;;;;;;21.67;71.15;101064.69;5055495;28;20100;-63
2023/06/19 06:34:07;;;;;;;8.85;7.47;;;;;;;21.80;69.50;101062.50;5055453;28;20037;-64
2023/06/19 06:36:32;;;;;;;9.57;7.13;;;;;;;21.85;68.67;101065.91;5055080;28;20389;-63
2023/06/19 06:38:58;;;;;;;8.68;7.50;;;;;;;22.05;68.30;101073.31;5055381;28;20106;-63
2023/06/19 06:41:24;;;;;;;12.07;7.90;;;;;;;22.32;67.26;101070.66;5054973;28;20034;-63
2023/06/19 06:43:49;;;;;;;14.40;7.97;;;;;;;22.56;65.69;101083.25;5055073;28;20105;-64
2023/06/19 06:46:15;;;;;;;9.68;7.85;;;;;;;22.59;65.42;101083.16;5037074;28;20445;-64
2023/06/19 06:48:41;;;;;;;9.43;7.38;;;;;;;22.66;63.89;101076.63;5054949;28;20028;-63
2023/06/19 06:51:06;;;;;;;10.60;8.00;;;;;;;22.70;62.83;101080.97;5054709;28;20387;-63
2023/06/19 06:53:32;;;;;;;13.68;8.05;;;;;;;22.77;61.62;101083.44;5054230;28;20108;-63
2023/06/19 06:55:59;;;;;;;10.38;8.02;;;;;;;22.82;61.64;101090.41;5054668;28;20029;-63
2023/06/19 06:58:24;;;;;;;10.50;8.30;;;;;;;22.89;61.34;101088.38;5054734;28;20039;-63
2023/06/19 07:00:50;;;;;;;11.50;7.93;;;;;;;23.05;61.60;101083.34;5054398;28;20021;-64
2023/06/19 07:03:16;;;;;;;9.95;8.25;;;;;;;23.05;60.85;101081.53;5054854;28;20080;-64
2023/06/19 07:05:42;;;;;;;11.98;8.10;;;;;;;23.18;61.53;101084.66;5036753;28;20120;-63
2023/06/19 07:08:07;;;;;;;9.88;7.82;;;;;;;23.49;60.70;101092.44;5054550;28;20063;-63
2023/06/19 07:10:33;;;;;;;8.93;7.75;;;;;;;23.73;60.42;101096.03;5054380;28;20170;-63
2023/06/19 07:12:58;;;;;;;10.68;8.45;;;;;;;23.89;58.80;101101.66;5054386;28;20394;-63
2023/06/19 07:15:23;;;;;;;8.98;7.70;;;;;;;23.94;58.07;101097.00;5054402;28;20029;-64
2023/06/19 07:17:49;;;;;;;10.05;8.43;;;;;;;24.04;57.83;101108.28;5054318;28;20083;-64
2023/06/19 07:20:15;;;;;;;11.95;8.80;;;;;;;24.06;56.85;101109.09;5054359;28;20025;-63
2023/06/19 07:22:41;;;;;;;11.90;8.60;;;;;;;24.09;56.08;101117.94;5054311;28;20033;-63
2023/06/19 07:25:07;;;;;;;11.52;7.90;;;;;;;24.09;56.58;101114.38;5054140;28;20035;-63
2023/06/19 07:27:33;;;;;;;10.68;8.85;;;;;;;24.07;56.34;101129.72;5054013;28;20450;-63
2023/06/19 07:29:58;;;;;;;14.88;9.52;;;;;;;24.03;55.89;101126.31;5054514;28;20035;-63
2023/06/19 07:32:24;;;;;;;14.90;9.10;;;;;;;24.14;55.71;101129.41;5054152;28;20463;-65
2023/06/19 07:34:49;;;;;;;11.65;8.30;;;;;;;24.35;56.23;101133.06;5053987;28;20032;-64
2023/06/19 07:37:17;;;;;;;12.43;8.45;;;;;;;24.46;55.04;101129.94;5054220;28;20500;-63
2023/06/19 07:39:46;;;;;;;11.23;8.18;;;;;;;24.66;54.81;101143.47;5054072;28;20119;-63
2023/06/19 07:42:14;;;;;;;9.82;7.63;;;;;;;24.73;54.49;101133.28;5035992;28;20033;-63
2023/06/19 07:44:40;;;;;;;11.45;8.70;;;;;;;24.71;53.57;101136.06;5054377;28;20032;-63
2023/06/19 07:47:06;;;;;;;9.40;7.78;;;;;;;24.78;54.00;101139.34;5053761;28;20073;-63
2023/06/19 07:49:31;;;;;;;8.65;7.65;;;;;;;24.89;53.19;101141.59;5053952;28;20033;-63
2023/06/19 07:51:57;;;;;;;8.77;7.18;;;;;;;24.93;53.36;101141.41;5053590;28;20032;-64
2023/06/19 07:54:22;;;;;;;8.80;7.30;;;;;;;25.12;52.67;101136.06;5053633;28;20481;-64
2023/06/19 07:56:47;;;;;;;10.57;7.30;;;;;;;25.23;51.92;101127.50;5035556;28;20040;-63
2023/06/19 07:59:14;;;;;;;10.27;7.03;;;;;;;25.38;52.53;101121.34;5053676;28;20021;-64
2023/06/19 08:01:39;;;;;;;9.60;7.30;;;;;;;25.48;51.39;101129.91;5053403;28;20427;-63
2023/06/19 08:04:05;;;;;;;10.07;7.28;;;;;;;25.58;51.63;101123.13;5052668;28;20057;-63
2023/06/19 08:06:30;;;;;;;9.20;7.47;;;;;;;25.72;51.42;101131.47;5053468;28;20033;-64
2023/06/19 08:08:56;;;;;;;12.00;7.40;;;;;;;25.75;51.47;101124.16;5035689;28;20471;-64
2023/06/19 08:11:21;;;;;;;14.73;6.97;;;;;;;25.73;51.57;101133.22;5053379;28;20021;-63
2023/06/19 08:13:46;;;;;;;10.15;7.05;;;;;;;25.60;51.23;101131.16;5053300;28;20132;-65
2023/06/19 08:16:12;;;;;;;10.75;7.32;;;;;;;25.50;51.40;101138.84;5035760;28;20147;-63
2023/06/19 08:18:37;;;;;;;10.52;6.70;;;;;;;25.28;52.13;101138.97;5053495;28;20474;-63
2023/06/19 08:21:03;;;;;;;11.93;7.05;;;;;;;25.25;52.63;101147.22;5053037;28;20087;-63
2023/06/19 08:23:28;;;;;;;11.18;6.93;;;;;;;25.20;52.28;101146.53;5053261;28;20029;-63
2023/06/19 08:25:54;;;;;;;7.95;6.97;;;;;;;25.29;52.46;101140.72;5052934;28;20072;-64
2023/06/19 08:28:19;;;;;;;8.30;6.65;;;;;;;25.43;52.27;101135.53;5052948;28;20033;-64
2023/06/19 08:30:45;;;;;;;10.13;6.97;;;;;;;25.56;51.70;101135.84;5053092;28;20105;-63
2023/06/19 08:33:12;;;;;;;11.10;7.68;;;;;;;25.39;52.44;101141.16;5053268;28;20037;-63
2023/06/19 08:35:38;;;;;;;10.07;7.00;;;;;;;25.63;51.46;101147.28;5052925;28;20494;-63
2023/06/19 08:38:03;;;;;;;8.07;6.63;;;;;;;25.84;50.19;101149.00;5053086;28;20517;-64
2023/06/19 08:40:29;;;;;;;9.13;7.20;;;;;;;25.84;49.21;101151.69;5052601;28;20041;-64
2023/06/19 08:42:55;;;;;;;10.60;7.10;;;;;;;25.77;49.97;101152.94;5052859;28;20074;-63
2023/06/19 08:45:21;;;;;;;10.77;7.43;;;;;;;25.69;50.26;101158.66;5052602;28;20029;-64
2023/06/19 08:47:57;;;;;;;10.15;7.20;;;;;;;25.67;50.02;101162.41;5052759;28;20021;-63
2023/06/19 08:50:22;;;;;;;9.95;6.80;;;;;;;25.32;50.20;101161.34;5052562;28;20028;-63
2023/06/19 08:52:48;;;;;;;9.07;6.93;;;;;;;25.35;50.47;101156.69;5052304;28;20083;-63
2023/06/19 08:55:13;;;;;;;10.07;7.05;;;;;;;25.46;51.06;101169.69;5052703;28;20108;-63
2023/06/19 08:57:39;;;;;;;16.05;7.00;;;;;;;25.73;50.04;101171.09;5052370;28;20058;-63
2023/06/19 09:00:10;;;;;;;13.80;7.15;;;;;;;25.96;49.79;101182.72;5052621;28;20025;-64
2023/06/19 09:02:44;;;;;;;9.85;7.65;;;;;;;25.99;49.72;101185.25;5052221;28;20053;-63
2023/06/19 09:05:15;;;;;;;10.07;6.82;;;;;;;26.10;49.25;101192.88;5052479;28;20115;-63
2023/06/19 09:07:42;;;;;;;10.40;7.03;;;;;;;26.11;49.21;101192.81;5052299;28;20021;-63
2023/06/19 09:10:16;;;;;;;8.73;6.43;;;;;;;26.25;49.28;101191.25;5052447;28;20170;-64
2023/06/19 09:12:56;;;;;;;12.55;6.63;;;;;;;26.34;48.47;101190.81;5052534;28;20020;-63
2023/06/19 09:15:23;;;;;;;8.15;6.35;;;;;;;26.40;48.10;101193.22;5052149;28;20040;-64
2023/06/19 09:18:09;;;;;;;11.30;7.18;;;;;;;26.34;48.70;101196.25;5051521;28;20136;-63
2023/06/19 09:20:41;;;;;;;11.40;6.88;;;;;;;26.31;48.31;101185.53;5052231;28;20025;-63
2023/06/19 09:23:07;;;;;;;12.05;6.60;;;;;;;26.54;47.40;101193.44;5052450;28;20037;-64
2023/06/19 09:25:42;;;;;;;10.40;6.85;;;;;;;26.58;47.34;101196.88;5052339;28;20425;-64
2023/06/19 09:28:16;;;;;;;10.32;7.75;;;;;;;26.38;48.08;101196.00;5052223;28;20037;-64
2023/06/19 09:30:54;;;;;;;9.32;6.53;;;;;;;26.57;48.43;101203.25;5052307;28;20039;-63
2023/06/19 09:33:20;;;;;;;10.15;7.05;;;;;;;26.76;47.43;101195.91;5041816;28;20043;-64
2023/06/19 09:35:46;;;;;;;11.40;7.40;;;;;;;27.00;46.30;101203.75;5032175;28;20414;-64
2023/06/19 09:38:12;;;;;;;12.93;7.00;;;;;;;27.24;45.71;101209.75;5032261;28;20040;-64
2023/06/19 09:40:38;;;;;;;10.90;7.03;;;;;;;27.31;45.10;101211.19;5032380;28;20109;-63
2023/06/19 09:43:06;;;;;;;14.65;6.95;;;;;;;27.52;44.08;101210.03;5032250;28;20041;-64
2023/06/19 09:45:33;;;;;;;10.27;7.00;;;;;;;27.52;44.00;101201.03;5032208;28;20018;-64
2023/06/19 09:47:59;;;;;;;10.82;7.20;;;;;;;27.68;42.88;101210.97;5032050;28;20033;-63
2023/06/19 09:50:27;;;;;;;10.43;7.05;;;;;;;27.69;42.88;101203.69;5031788;28;20021;-63
2023/06/19 09:52:54;;;;;;;11.88;6.82;;;;;;;27.76;43.05;101207.00;5031993;28;20029;-64
2023/06/19 09:55:24;;;;;;;12.55;6.78;;;;;;;28.13;42.58;101209.38;5032053;28;20069;-64
2023/06/19 09:57:51;;;;;;;14.00;6.65;;;;;;;28.32;41.25;101214.66;5031890;28;20049;-64
2023/06/19 10:00:21;;;;;;;11.55;7.18;;;;;;;28.36;40.67;101202.66;5032272;28;20052;-63
2023/06/19 10:02:48;;;;;;;9.25;6.80;;;;;;;28.20;41.72;101213.50;5014849;28;20084;-64
2023/06/19 10:05:14;;;;;;;10.48;6.60;;;;;;;28.44;40.31;101210.38;5031804;28;20045;-63
2023/06/19 10:07:49;;;;;;;12.05;6.68;;;;;;;28.62;39.82;101213.88;5031644;28;20514;-63
2023/06/19 10:10:26;;;;;;;11.38;6.28;;;;;;;28.59;40.91;101206.75;5031594;28;20549;-63
2023/06/19 10:12:56;;;;;;;9.57;6.32;;;;;;;28.73;39.98;101210.50;5031786;28;20482;-63
2023/06/19 10:15:26;;;;;;;12.00;6.53;;;;;;;28.83;40.07;101204.44;5014364;28;20033;-63
2023/06/19 10:18:05;;;;;;;10.60;6.78;;;;;;;29.08;40.62;101224.72;5032116;28;20024;-63
2023/06/19 10:20:35;;;;;;;10.05;6.43;;;;;;;29.34;38.61;101215.84;5032009;28;20108;-63
2023/06/19 10:23:17;;;;;;;13.07;6.45;;;;;;;29.35;38.47;101220.31;5031826;28;20091;-63
2023/06/19 10:25:44;;;;;;;10.10;6.43;;;;;;;29.19;38.09;101217.66;5031899;28;20029;-63
2023/06/19 10:28:27;;;;;;;9.15;6.63;;;;;;;28.93;39.72;101213.78;5034032;28;20045;-64
2023/06/19 10:31:14;;;;;;;8.80;6.70;;;;;;;28.93;39.12;101210.19;5035407;28;20021;-63
2023/06/19 10:33:40;;;;;;;10.30;6.90;;;;;;;29.03;38.56;101216.84;5035302;28;20164;-64
2023/06/19 10:36:19;;;;;;;9.80;7.05;;;;;;;28.92;39.43;101222.03;5035254;28;20145;-63
2023/06/19 10:38:49;;;;;;;9.75;6.80;;;;;;;28.98;38.25;101220.81;5035478;28;20394;-64
2023/06/19 10:41:19;;;;;;;9.63;7.03;;;;;;;28.97;38.67;101217.22;5035191;28;20026;-63
2023/06/19 10:44:03;;;;;;;9.70;6.78;;;;;;;29.16;38.92;101226.03;5035380;28;20034;-63
2023/06/19 10:46:35;;;;;;;13.18;6.38;;;;;;;29.00;38.30;101221.63;5035002;28;20025;-63
2023/06/19 10:49:04;;;;;;;9.07;6.22;;;;;;;28.82;37.38;101227.16;5035127;28;20026;-63
2023/06/19 10:51:38;;;;;;;9.30;5.32;;;;;;;28.78;36.90;101216.53;5034849;28;20091;-63
2023/06/19 10:54:04;;;;;;;9.32;6.60;;;;;;;28.91;38.29;101218.44;5035051;28;20128;-63
2023/06/19 10:56:30;;;;;;;10.68;6.72;;;;;;;28.89;38.37;101214.06;5034847;28;20029;-63
2023/06/19 10:58:59;;;;;;;10.95;6.38;;;;;;;28.80;37.43;101212.75;5034881;28;20032;-63
2023/06/19 11:01:38;;;;;;;9.13;6.85;;;;;;;28.25;38.48;101199.66;5034664;28;20447;-64
2023/06/19 11:04:08;;;;;;;10.85;6.38;;;;;;;28.26;39.80;101208.66;5034689;28;20131;-63
2023/06/19 11:06:34;;;;;;;9.50;6.95;;;;;;;28.05;40.66;101203.53;5016788;28;20033;-64
2023/06/19 11:09:00;;;;;;;11.70;6.82;;;;;;;28.07;39.68;101196.16;5034421;28;20021;-64
2023/06/19 11:11:46;;;;;;;10.68;6.88;;;;;;;28.18;40.06;101206.41;5034527;28;20040;-64
2023/06/19 11:14:13;;;;;;;8.68;6.38;;;;;;;28.09;40.68;101196.91;5033787;28;20033;-64
2023/06/19 11:16:41;;;;;;;9.27;6.30;;;;;;;28.36;38.90;101193.63;5034310;28;20094;-64
2023/06/19 11:19:15;;;;;;;11.90;6.45;;;;;;;28.63;39.11;101183.84;5033427;28;20104;-63
2023/06/19 11:21:46;;;;;;;10.70;6.40;;;;;;;29.11;37.51;101206.38;5034264;28;20030;-64